.
WxDataArchive / Data Records for 2006-01-19
2006-01-18 January 2006 2006-01-20

Data Records for Thursday, 19 January 2006

Time	Temp	Chill	HIndex	Humid	Dewpt	 Wind 	HiWind	WindDir	Rain 	Barom 
-----	----	-----	------	-----	-----	------	------	-------	-----	----- 
00:00	30.6	30.6	30.6	74	23.3	1	4	270	0.00	30.037 
00:05	30.7	30.7	30.7	74	23.4	1	5	292	0.00	30.037 
00:10	30.9	30.9	30.9	74	23.6	1	6	248	0.00	30.037 
00:15	30.9	30.9	30.9	74	23.6	1	2	248	0.00	30.039 
00:20	30.9	30.9	30.9	74	23.6	1	3	90	0.00	30.039 
00:25	30.9	30.9	30.9	74	23.6	1	2	270	0.00	30.039 
00:30	30.9	30.9	30.9	74	23.6	1	3	248	0.00	30.039 
00:35	30.7	30.7	30.7	74	23.4	1	6	225	0.00	30.039 
00:40	30.7	30.7	30.7	73	23.1	1	4	248	0.00	30.039 
00:45	30.7	30.7	30.7	73	23.1	1	3	225	0.00	30.040 
00:50	30.7	30.7	30.7	73	23.1	1	3	248	0.00	30.040 
00:55	30.9	30.9	30.9	73	23.3	1	3	315	0.00	30.040 
01:00	30.7	30.7	30.7	73	23.1	1	3	270	0.00	30.038 
01:05	30.7	30.7	30.7	74	23.4	1	3	270	0.00	30.038 
01:10	30.7	30.7	30.7	74	23.4	1	4	248	0.00	30.038 
01:15	30.6	30.6	30.6	74	23.3	1	3	248	0.00	30.037 
01:20	30.7	30.7	30.7	74	23.4	1	4	248	0.00	30.037 
01:25	30.7	30.7	30.7	75	23.7	0	2	248	0.00	30.037 
01:30	30.7	30.7	30.7	75	23.7	1	5	22	0.00	30.029 
01:35	30.9	30.9	30.9	75	23.9	0	2	45	0.00	30.029 
01:40	30.9	30.9	30.9	75	23.9	0	2	45	0.00	30.029 
01:45	30.9	30.9	30.9	75	23.9	1	2	45	0.00	30.023 
01:50	31.0	31.0	31.0	75	24.0	1	2	90	0.00	30.023 
01:55	31.0	31.0	31.0	75	24.0	1	3	90	0.00	30.023 
02:00	31.2	31.2	31.2	75	24.2	0	2	90	0.00	30.023 
02:05	31.2	31.2	31.2	75	24.2	0	2	135	0.00	30.023 
02:10	31.2	31.2	31.2	75	24.2	0	1	135	0.00	30.023 
02:15	31.0	31.0	31.0	75	24.0	0	2	135	0.00	30.021 
02:20	31.0	31.0	31.0	76	24.3	0	2	135	0.00	30.021 
02:25	30.9	30.9	30.9	76	24.2	1	2	90	0.00	30.021 
02:30	30.9	30.9	30.9	76	24.2	0	2	112	0.00	30.017 
02:35	30.7	30.7	30.7	76	24.0	0	1	112	0.00	30.017 
02:40	30.4	30.4	30.4	77	24.1	0	1	112	0.00	30.017 
02:45	30.0	30.0	30.0	77	23.7	0	1	112	0.00	30.014 
02:50	29.5	29.5	29.5	78	23.5	0	1	112	0.00	30.014 
02:55	29.1	29.1	29.1	79	23.4	0	1	112	0.00	30.014 
03:00	28.7	28.7	28.7	79	23.0	0	0	---	0.00	30.017 
03:05	28.4	28.4	28.4	80	23.0	0	0	---	0.00	30.017 
03:10	27.8	27.8	27.8	81	22.7	0	0	---	0.00	30.017 
03:15	27.3	27.3	27.3	82	22.5	0	0	---	0.00	30.011 
03:20	26.9	26.9	26.9	83	22.4	0	0	---	0.00	30.011 
03:25	26.6	26.6	26.6	84	22.4	0	1	112	0.00	30.011 
03:30	26.3	26.3	26.3	84	22.1	0	0	---	0.00	30.009 
03:35	26.1	26.1	26.1	85	22.2	0	0	---	0.00	30.009 
03:40	26.0	26.0	26.0	85	22.1	0	0	---	0.00	30.009 
03:45	25.8	25.8	25.8	85	21.9	0	0	---	0.00	30.009 
03:50	25.6	25.6	25.6	85	21.7	0	0	---	0.00	30.009 
03:55	25.4	25.4	25.4	86	21.8	0	0	---	0.00	30.009 
04:00	25.3	25.3	25.3	87	22.0	0	0	---	0.00	30.011 
04:05	25.0	25.0	25.0	87	21.7	0	0	---	0.00	30.011 
04:10	24.8	24.8	24.8	87	21.5	0	0	---	0.00	30.011 
04:15	24.5	24.5	24.5	87	21.2	0	0	---	0.00	30.009 
04:20	24.2	24.2	24.2	87	20.9	0	0	---	0.00	30.009 
04:25	24.2	24.2	24.2	88	21.2	0	0	---	0.00	30.009 
04:30	24.1	24.1	24.1	88	21.1	0	0	---	0.00	30.008 
04:35	24.4	24.4	24.4	88	21.4	0	1	112	0.00	30.008 
04:40	24.4	24.4	24.4	89	21.6	0	0	---	0.00	30.008 
04:45	24.5	24.5	24.5	90	22.0	0	1	112	0.00	29.997 
04:50	25.0	25.0	25.0	89	22.2	0	1	112	0.00	29.997 
04:55	25.4	25.4	25.4	89	22.6	0	1	112	0.00	29.997 
05:00	25.7	25.7	25.7	88	22.6	0	1	112	0.00	29.993 
05:05	26.0	26.0	26.0	87	22.7	0	1	112	0.00	29.993 
05:10	26.1	26.1	26.1	87	22.8	0	1	112	0.00	29.993 
05:15	26.4	26.4	26.4	86	22.8	0	1	112	0.00	29.990 
05:20	26.6	26.6	26.6	85	22.7	0	1	112	0.00	29.990 
05:25	26.7	26.7	26.7	85	22.8	0	1	112	0.00	29.990 
05:30	26.9	26.9	26.9	84	22.7	0	1	112	0.00	29.984 
05:35	27.0	27.0	27.0	84	22.8	0	1	112	0.00	29.984 
05:40	27.0	27.0	27.0	84	22.8	0	0	---	0.00	29.984 
05:45	27.0	27.0	27.0	84	22.8	0	0	---	0.00	29.978 
05:50	27.0	27.0	27.0	84	22.8	0	1	112	0.00	29.978 
05:55	27.0	27.0	27.0	85	23.1	0	0	---	0.00	29.978 
06:00	27.0	27.0	27.0	85	23.1	0	0	---	0.00	29.978 
06:05	27.0	27.0	27.0	85	23.1	0	0	---	0.00	29.978 
06:10	27.2	27.2	27.2	85	23.3	0	0	---	0.00	29.978 
06:15	27.3	27.3	27.3	85	23.4	0	0	---	0.00	29.976 
06:20	27.5	27.5	27.5	85	23.6	0	1	112	0.00	29.976 
06:25	27.8	27.8	27.8	85	23.9	0	1	112	0.00	29.976 
06:30	28.2	28.2	28.2	85	24.3	0	2	112	0.00	29.970 
06:35	28.8	28.8	28.8	84	24.6	0	1	112	0.00	29.970 
06:40	29.5	29.5	29.5	84	25.3	0	1	112	0.00	29.970 
06:45	30.3	30.3	30.3	83	25.8	1	2	112	0.00	29.959 
06:50	31.0	31.0	31.0	81	25.9	1	2	112	0.00	29.959 
06:55	31.5	31.5	31.5	81	26.4	1	3	112	0.00	29.959 
07:00	32.1	32.1	32.1	80	26.6	1	3	135	0.00	29.955 
07:05	32.8	32.8	32.8	78	26.7	1	3	135	0.00	29.955 
07:10	33.4	33.4	33.4	77	27.0	1	3	112	0.00	29.955 
07:15	33.8	33.8	33.8	77	27.4	1	3	135	0.00	29.952 
07:20	34.1	34.1	34.1	77	27.7	1	3	112	0.00	29.952 
07:25	34.4	34.4	34.4	76	27.6	1	3	112	0.00	29.952 
07:30	34.7	34.7	34.7	76	27.9	1	3	135	0.00	29.950 
07:35	34.7	34.7	34.7	76	27.9	0	2	135	0.00	29.950 
07:40	34.9	34.9	34.9	76	28.1	1	4	112	0.00	29.950 
07:45	34.9	34.9	34.9	76	28.1	1	2	90	0.00	29.943 
07:50	35.0	35.0	35.0	76	28.2	1	3	90	0.00	29.943 
07:55	35.2	35.2	35.2	75	28.1	1	4	112	0.00	29.943 
08:00	35.3	35.3	35.3	75	28.2	1	3	112	0.00	29.936 
08:05	35.5	35.5	35.5	75	28.4	1	3	90	0.00	29.936 
08:10	35.8	35.8	35.8	75	28.7	1	3	112	0.00	29.936 
08:15	35.9	35.9	35.9	75	28.8	1	3	112	0.00	29.935 
08:20	36.0	36.0	36.0	74	28.5	2	3	135	0.00	29.935 
08:25	36.3	36.3	36.3	74	28.8	1	4	112	0.00	29.935 
08:30	36.5	36.5	36.5	74	29.0	1	3	112	0.00	29.935 
08:35	36.5	36.5	36.5	74	29.0	1	3	112	0.00	29.935 
08:40	36.5	36.5	36.5	74	29.0	1	3	112	0.00	29.935 
08:45	36.6	36.6	36.6	74	29.1	1	2	45	0.00	29.941 
08:50	36.8	36.8	36.8	74	29.3	1	5	292	0.00	29.941 
08:55	36.9	36.9	36.9	74	29.4	0	4	112	0.00	29.941 
09:00	36.9	36.9	36.9	74	29.4	0	2	90	0.00	29.944 
09:05	37.0	37.0	37.0	74	29.5	1	4	68	0.00	29.944 
09:10	37.3	37.3	37.3	73	29.5	1	4	90	0.00	29.944 
09:15	37.5	37.5	37.5	73	29.6	1	4	112	0.00	29.935 
09:20	37.9	37.9	37.9	73	30.0	1	5	68	0.00	29.935 
09:25	38.3	38.3	38.3	72	30.1	1	6	292	0.00	29.935 
09:30	38.8	38.8	38.8	71	30.2	2	4	112	0.00	29.932 
09:35	38.9	38.9	38.9	70	30.0	2	4	45	0.00	29.932 
09:40	38.9	38.9	38.9	71	30.3	2	4	270	0.00	29.932 
09:45	39.2	39.2	39.2	70	30.3	2	4	68	0.00	29.936 
09:50	39.6	39.6	39.6	69	30.3	2	6	112	0.00	29.936 
09:55	39.9	39.9	39.9	69	30.6	2	6	45	0.00	29.936 
10:00	40.1	40.1	40.1	69	30.8	2	6	90	0.00	29.939 
10:05	40.2	40.2	40.2	69	30.9	2	5	68	0.00	29.939 
10:10	40.3	40.3	40.3	69	31.0	2	9	270	0.00	29.939 
10:15	40.6	40.6	40.6	69	31.2	2	5	68	0.00	29.935 
10:20	40.9	40.9	40.9	68	31.2	3	7	292	0.00	29.935 
10:25	41.1	41.1	41.1	68	31.4	2	7	315	0.00	29.935 
10:30	41.3	41.3	41.3	68	31.5	2	5	22	0.00	29.930 
10:35	41.5	41.5	41.5	68	31.7	2	6	338	0.00	29.930 
10:40	41.8	41.8	41.8	68	32.0	2	5	112	0.01	29.930 
10:45	41.9	41.9	41.9	68	32.1	2	9	90	0.00	29.928 
10:50	42.2	42.2	42.2	68	32.4	3	11	248	0.00	29.928 
10:55	42.3	42.3	42.3	67	32.1	3	8	45	0.00	29.928 
11:00	42.6	42.6	42.6	67	32.4	3	9	68	0.00	29.923 
11:05	42.8	42.8	42.8	68	33.0	2	9	90	0.00	29.923 
11:10	43.1	43.1	43.1	67	32.9	3	8	90	0.01	29.923 
11:15	43.3	43.3	43.3	67	33.1	2	8	90	0.00	29.912 
11:20	43.6	43.6	43.6	67	33.4	3	11	248	0.00	29.912 
11:25	43.9	43.9	43.9	66	33.3	3	12	270	0.00	29.912 
11:30	44.1	44.1	44.1	67	33.9	3	9	270	0.00	29.910 
11:35	44.2	44.2	44.2	67	33.9	2	13	225	0.00	29.910 
11:40	44.5	44.5	44.5	66	33.9	3	10	248	0.00	29.910 
11:45	44.6	42.6	44.6	66	34.0	4	11	248	0.00	29.908 
11:50	44.9	44.9	44.9	66	34.2	3	9	248	0.00	29.908 
11:55	45.1	45.1	45.1	66	34.4	3	7	270	0.01	29.908 
12:00	45.4	45.4	45.4	67	35.1	2	6	248	0.00	29.904 
12:05	45.7	45.7	45.7	67	35.4	3	10	270	0.00	29.904 
12:10	46.0	43.5	46.0	65	34.9	5	13	248	0.00	29.904 
12:15	46.1	46.1	46.1	67	35.8	3	6	248	0.00	29.892 
12:20	46.4	46.4	46.4	66	35.7	3	12	248	0.00	29.892 
12:25	46.7	46.7	46.7	67	36.3	3	9	248	0.00	29.892 
12:30	46.8	44.5	46.8	65	35.7	5	12	248	0.00	29.884 
12:35	47.0	45.4	47.0	65	35.9	4	13	248	0.00	29.884 
12:40	47.1	45.5	47.1	66	36.3	4	9	248	0.00	29.884 
12:45	47.3	45.8	47.3	66	36.5	4	10	248	0.00	29.875 
12:50	47.6	47.6	47.6	67	37.2	3	10	248	0.00	29.875 
12:55	47.7	46.2	47.7	67	37.3	4	11	248	0.00	29.875 
13:00	48.0	45.9	48.0	66	37.2	5	12	248	0.00	29.871 
13:05	48.3	48.3	48.3	67	37.9	3	11	248	0.00	29.871 
13:10	48.5	47.1	48.5	66	37.7	4	14	248	0.00	29.871 
13:15	48.6	46.6	48.6	65	37.4	5	11	248	0.00	29.858 
13:20	48.8	46.2	48.8	64	37.2	6	13	248	0.00	29.858 
13:25	48.9	47.6	48.9	66	38.0	4	13	248	0.00	29.858 
13:30	48.9	46.9	48.9	65	37.7	5	15	248	0.00	29.842 
13:35	48.9	46.9	48.9	66	38.0	5	14	248	0.00	29.842 
13:40	49.2	49.2	49.2	66	38.3	3	7	248	0.00	29.842 
13:45	49.5	47.6	49.5	66	38.6	5	12	248	0.00	29.834 
13:50	49.8	49.8	49.8	66	38.9	3	7	270	0.00	29.834 
13:55	49.8	48.6	49.8	66	38.9	4	12	248	0.00	29.834 
14:00	50.1	50.1	50.1	66	39.2	3	11	225	0.00	29.826 
14:05	50.2	50.2	50.2	65	38.9	5	12	248	0.00	29.826 
14:10	50.4	50.4	50.4	67	39.9	3	14	248	0.00	29.826 
14:15	50.2	50.2	50.2	67	39.7	4	12	270	0.00	29.820 
14:20	50.5	50.5	50.5	65	39.2	5	15	248	0.00	29.820 
14:25	50.5	50.5	50.5	70	41.1	4	13	248	0.00	29.820 
14:30	50.8	50.8	50.8	65	39.5	5	11	270	0.00	29.823 
14:35	50.8	50.8	50.8	66	39.9	4	9	248	0.00	29.823 
14:40	51.0	51.0	51.0	66	40.0	5	11	248	0.00	29.823 
14:45	50.8	50.8	50.8	67	40.2	4	10	248	0.00	29.825 
14:50	51.1	51.1	51.1	67	40.5	3	8	248	0.00	29.825 
14:55	51.3	51.3	51.3	66	40.3	6	16	248	0.00	29.825 
15:00	51.4	51.4	51.4	67	40.8	3	10	270	0.00	29.817 
15:05	51.7	51.7	51.7	67	41.1	4	11	225	0.00	29.817 
15:10	51.7	51.7	51.7	66	40.7	3	10	270	0.00	29.817 
15:15	51.9	51.9	51.9	67	41.3	3	7	248	0.00	29.823 
15:20	52.0	52.0	52.0	66	41.0	4	11	248	0.00	29.823 
15:25	52.0	52.0	52.0	67	41.4	3	9	270	0.00	29.823 
15:30	52.2	52.2	52.2	65	40.8	6	12	248	0.00	29.813 
15:35	52.5	52.5	52.5	66	41.5	3	10	248	0.00	29.813 
15:40	52.5	52.5	52.5	67	41.9	3	10	90	0.00	29.813 
15:45	52.5	52.5	52.5	67	41.9	3	9	270	0.00	29.811 
15:50	52.6	52.6	52.6	66	41.6	3	11	270	0.00	29.811 
15:55	52.8	52.8	52.8	67	42.1	4	10	248	0.00	29.811 
16:00	52.8	52.8	52.8	67	42.1	4	14	225	0.00	29.815 
16:05	52.8	52.8	52.8	67	42.1	3	9	270	0.00	29.815 
16:10	52.6	52.6	52.6	67	42.0	3	7	248	0.00	29.815 
16:15	52.3	52.3	52.3	68	42.1	4	15	248	0.00	29.824 
16:20	52.3	52.3	52.3	68	42.1	4	12	270	0.00	29.824 
16:25	52.2	52.2	52.2	68	42.0	4	12	248	0.00	29.824 
16:30	52.0	52.0	52.0	69	42.1	4	11	248	0.00	29.826 
16:35	52.0	52.0	52.0	69	42.1	4	10	248	0.00	29.826 
16:40	52.0	52.0	52.0	69	42.1	4	10	248	0.00	29.826 
16:45	51.9	51.9	51.9	69	42.1	4	12	248	0.00	29.819 
16:50	51.9	51.9	51.9	70	42.4	3	9	248	0.00	29.819 
16:55	51.7	51.7	51.7	71	42.6	2	6	90	0.00	29.819 
17:00	51.6	51.6	51.6	71	42.5	2	6	248	0.00	29.815 
17:05	51.6	51.6	51.6	72	42.9	2	6	270	0.00	29.815 
17:10	51.4	51.4	51.4	72	42.7	2	6	248	0.00	29.815 
17:15	51.3	51.3	51.3	72	42.6	2	9	90	0.00	29.811 
17:20	51.1	51.1	51.1	73	42.7	2	6	248	0.00	29.811 
17:25	51.1	51.1	51.1	73	42.7	2	4	270	0.00	29.811 
17:30	51.0	51.0	51.0	73	42.7	2	12	135	0.00	29.806 
17:35	50.8	50.8	50.8	74	42.8	1	4	248	0.00	29.806 
17:40	50.7	50.7	50.7	74	42.7	2	6	225	0.00	29.806 
17:45	50.5	50.5	50.5	75	42.9	1	5	90	0.00	29.802 
17:50	50.5	50.5	50.5	75	42.9	2	6	248	0.00	29.802 
17:55	50.4	50.4	50.4	75	42.8	1	5	248	0.00	29.802 
18:00	50.5	50.5	50.5	75	42.9	2	6	248	0.00	29.811 
18:05	50.5	50.5	50.5	75	42.9	1	5	225	0.00	29.811 
18:10	50.7	50.7	50.7	75	43.1	2	6	225	0.00	29.811 
18:15	50.8	50.8	50.8	75	43.2	2	6	270	0.00	29.812 
18:20	51.0	51.0	51.0	74	43.0	3	7	248	0.00	29.812 
18:25	51.1	51.1	51.1	74	43.1	2	4	248	0.00	29.812 
18:30	51.3	51.3	51.3	74	43.3	3	6	248	0.00	29.820 
18:35	51.4	51.4	51.4	74	43.4	2	5	248	0.00	29.820 
18:40	51.7	51.7	51.7	73	43.3	2	7	270	0.00	29.820 
18:45	51.7	51.7	51.7	73	43.3	2	6	248	0.00	29.820 
18:50	51.7	51.7	51.7	73	43.3	2	6	248	0.00	29.820 
18:55	51.7	51.7	51.7	73	43.3	2	10	202	0.00	29.820 
19:00	51.7	51.7	51.7	74	43.7	2	5	270	0.00	29.823 
19:05	51.7	51.7	51.7	74	43.7	2	9	248	0.00	29.823 
19:10	51.7	51.7	51.7	74	43.7	2	7	248	0.00	29.823 
19:15	51.7	51.7	51.7	74	43.7	2	9	248	0.00	29.822 
19:20	52.0	52.0	52.0	73	43.6	4	14	248	0.00	29.822 
19:25	52.0	52.0	52.0	73	43.6	2	5	248	0.00	29.822 
19:30	52.0	52.0	52.0	74	44.0	2	7	248	0.00	29.829 
19:35	52.0	52.0	52.0	74	44.0	3	6	225	0.00	29.829 
19:40	52.0	52.0	52.0	74	44.0	2	6	248	0.00	29.829 
19:45	52.0	52.0	52.0	74	44.0	2	6	248	0.00	29.829 
19:50	52.0	52.0	52.0	74	44.0	2	5	248	0.00	29.829 
19:55	52.0	52.0	52.0	74	44.0	2	6	248	0.00	29.829 
20:00	51.9	51.9	51.9	75	44.2	2	6	248	0.00	29.829 
20:05	51.7	51.7	51.7	75	44.0	2	6	248	0.00	29.829 
20:10	51.6	51.6	51.6	75	43.9	2	5	248	0.00	29.829 
20:15	51.7	51.7	51.7	75	44.0	2	4	248	0.00	29.829 
20:20	51.6	51.6	51.6	75	43.9	1	6	248	0.00	29.829 
20:25	51.3	51.3	51.3	76	44.0	2	5	248	0.00	29.829 
20:30	51.1	51.1	51.1	77	44.1	1	4	248	0.00	29.833 
20:35	51.0	51.0	51.0	77	44.0	1	5	248	0.00	29.833 
20:40	51.0	51.0	51.0	77	44.0	2	6	248	0.00	29.833 
20:45	50.8	50.8	50.8	77	43.9	1	5	225	0.00	29.835 
20:50	50.7	50.7	50.7	78	44.1	2	6	248	0.00	29.835 
20:55	50.8	50.8	50.8	78	44.2	2	5	248	0.00	29.835 
21:00	50.8	50.8	50.8	77	43.9	2	4	248	0.00	29.846 
21:05	51.0	51.0	51.0	77	44.0	2	4	248	0.00	29.846 
21:10	51.0	51.0	51.0	77	44.0	2	4	248	0.00	29.846 
21:15	51.0	51.0	51.0	77	44.0	2	5	248	0.00	29.848 
21:20	51.1	51.1	51.1	78	44.5	2	3	248	0.00	29.848 
21:25	51.3	51.3	51.3	77	44.3	3	6	248	0.00	29.848 
21:30	51.4	51.4	51.4	77	44.4	3	6	248	0.00	29.856 
21:35	51.4	51.4	51.4	77	44.4	3	6	248	0.00	29.856 
21:40	51.6	51.6	51.6	77	44.6	3	5	248	0.00	29.856 
21:45	51.6	51.6	51.6	77	44.6	3	6	248	0.00	29.856 
21:50	51.6	51.6	51.6	77	44.6	3	6	248	0.00	29.856 
21:55	51.6	51.6	51.6	77	44.6	3	7	248	0.00	29.856 
22:00	51.4	51.4	51.4	78	44.8	2	4	248	0.00	29.860 
22:05	51.3	51.3	51.3	78	44.7	2	5	248	0.00	29.860 
22:10	51.1	51.1	51.1	78	44.5	2	4	248	0.00	29.860 
22:15	51.0	51.0	51.0	79	44.7	2	7	225	0.00	29.855 
22:20	51.1	51.1	51.1	79	44.8	2	6	248	0.00	29.855 
22:25	51.1	51.1	51.1	79	44.8	2	4	225	0.00	29.855 
22:30	51.1	51.1	51.1	79	44.8	1	3	270	0.00	29.858 
22:35	51.1	51.1	51.1	79	44.8	1	3	270	0.00	29.858 
22:40	51.3	51.3	51.3	79	45.0	2	5	248	0.00	29.858 
22:45	51.6	51.6	51.6	79	45.3	2	5	248	0.00	29.850 
22:50	51.7	51.7	51.7	79	45.4	3	5	248	0.00	29.850 
22:55	51.9	51.9	51.9	79	45.6	2	5	248	0.00	29.850 
23:00	52.0	52.0	52.0	78	45.4	3	5	248	0.00	29.856 
23:05	52.2	52.2	52.2	78	45.5	3	7	248	0.00	29.856 
23:10	52.3	52.3	52.3	78	45.6	4	10	248	0.00	29.856 
23:15	52.5	52.5	52.5	78	45.8	3	10	248	0.00	29.854 
23:20	52.5	52.5	52.5	78	45.8	4	11	248	0.00	29.854 
23:25	52.6	52.6	52.6	77	45.6	3	9	248	0.00	29.854 
23:30	52.8	52.8	52.8	77	45.8	4	10	248	0.00	29.854 
23:35	52.8	52.8	52.8	77	45.8	4	10	248	0.00	29.854 
23:40	53.1	53.1	53.1	77	46.1	4	12	248	0.00	29.854 
23:45	53.1	53.1	53.1	77	46.1	4	10	248	0.00	29.855 
23:50	53.2	53.2	53.2	77	46.2	4	13	270	0.00	29.855 
23:55	53.3	53.3	53.3	76	45.9	5	15	248	0.00	29.855 

CoCoRaHS
IN-AL-39
A2 Web Hosting
Creative Commons License
GoDaddy
Look for:

loaded 2017-10-17 22:26:50 • last modified 2010-11-18 10:43:29
Privacy PolicyDisclaimer
• wx.awcolley.com is powered by PmWiki v.2002016 •
• all content (unless otherwise noted) © 2017 A W Colley